CheckWX is a tool to help pilots better visualize weather data.  It is not intended as a substitute for an official pre-flight weather briefing.

09:33:10 UTC

PAOT TAF
Ralph Wien Memorial Airport
Kotzebue, Alaska, USA
PAOT 280538Z 2806/2906 07015KT P6SM BKN110 FM280800 05011KT P6SM SKC

Mar-28@
06:00 UTC

Mar-28 @ 06:00 UTC

Mar-28@
08:00 UTC

Mar-28 @ 08:00 UTC

TAF PAOT 280538Z 2806/2906 07015KT P6SM BKN110

Expired

Wind
  • 070° at 15 KTS
Cloud Levels
  • Broken at 11,000' AGL

Mar-28@
08:00 UTC

Mar-28 @ 08:00 UTC

Mar-29@
06:00 UTC

Mar-29 @ 06:00 UTC

FM280800 05011KT P6SM SKC

From

From Standard forecast or significant change

Wind
  • 050° at 11 KTS
Cloud Levels
  • Clear skies